Overview Statistics Trail Chart Weather Telemetry Raw packets
 

This is the latest recevied weather packets stored in our database for station/object KO4YAW. If no packets are shown the sender has not sent any weather packets the latest 10 day(s).

<< 21 22 23 24 25 26 27 >>
Time Temp. Humidity Pressure Rain* Wind** Luminosity Snow
1788167921 18.33° C 58% 1019.8 hPa 0 mm - 0 W/m² -
1788167021 18.33° C 58% 1019.7 hPa 0 mm - 0 W/m² -
1788166121 18.33° C 59% 1019.7 hPa 0 mm - 0 W/m² -
1788165221 18.33° C 59% 1020.1 hPa 0 mm - 0 W/m² -
1788164321 18.33° C 60% 1020.2 hPa 0 mm - 0 W/m² -
1788163421 17.78° C 60% 1020.2 hPa 0 mm - 0 W/m² -
1788162521 17.78° C 61% 1020.4 hPa 0 mm - 0 W/m² -
1788161621 18.33° C 61% 1020.4 hPa 0 mm - 0 W/m² -
1788160721 18.33° C 60% 1020.5 hPa 0 mm - 0 W/m² -
1788159821 18.89° C 58% 1020.5 hPa 0 mm - 0 W/m² -
1788158921 18.89° C 57% 1020.9 hPa 0 mm - 0 W/m² -
1788158021 18.89° C 56% 1021.1 hPa 0 mm - 0 W/m² -
1788157121 19.44° C 53% 1021.2 hPa 0 mm - 0 W/m² -
1788156221 20° C 52% 1021.4 hPa 0 mm - 0 W/m² -
1788155321 20.56° C 50% 1021.4 hPa 0 mm - 0 W/m² -
1788154421 21.11° C 49% 1021.4 hPa 0 mm - 0 W/m² -
1788153521 21.67° C 48% 1021.7 hPa 0 mm - 0 W/m² -
1788152621 20.56° C 53% 1021.6 hPa 0 mm - 0 W/m² -
1788151721 20° C 59% 1021.5 hPa 0 mm - 0 W/m² -
1788150804 19.44° C 64% 1021.2 hPa 0 mm - 0 W/m² -
1788149904 19.44° C 65% 1020.9 hPa 0 mm - 0 W/m² -
1788149004 19.44° C 64% 1020.6 hPa 0 mm - 0 W/m² -
1788148104 19.44° C 63% 1020.5 hPa 0 mm - 0 W/m² -
1788147204 19.44° C 64% 1021 hPa 0 mm - 0 W/m² -
1788146304 19.44° C 66% 1021 hPa 0 mm - 0 W/m² -

* Rain since midnight (hover to see other rain measurements)
** Current wind speed in m/s (hover to see current wind gust speed)